sensor_id;sensor_type;location;lat;lon;timestamp;pressure;altitude;pressure_sealevel;temperature;humidity
62600;BME280;48671;48.922;2.346;2023-04-16T00:02:15;102209.94;;;10.60;55.63
62600;BME280;48671;48.922;2.346;2023-04-16T00:04:40;102207.41;;;10.55;55.50
62600;BME280;48671;48.922;2.346;2023-04-16T00:07:06;102210.03;;;10.52;56.01
62600;BME280;48671;48.922;2.346;2023-04-16T00:09:31;102210.97;;;10.50;55.81
62600;BME280;48671;48.922;2.346;2023-04-16T00:11:57;102213.63;;;10.45;55.93
62600;BME280;48671;48.922;2.346;2023-04-16T00:14:22;102205.91;;;10.41;55.86
62600;BME280;48671;48.922;2.346;2023-04-16T00:16:47;102210.25;;;10.40;56.05
62600;BME280;48671;48.922;2.346;2023-04-16T00:19:12;102212.88;;;10.36;55.95
62600;BME280;48671;48.922;2.346;2023-04-16T00:21:38;102214.72;;;10.30;56.19
62600;BME280;48671;48.922;2.346;2023-04-16T00:24:03;102213.88;;;10.25;56.06
62600;BME280;48671;48.922;2.346;2023-04-16T00:26:28;102212.16;;;10.23;56.39
62600;BME280;48671;48.922;2.346;2023-04-16T00:28:54;102207.88;;;10.19;56.44
62600;BME280;48671;48.922;2.346;2023-04-16T00:31:30;102216.53;;;10.19;56.70
62600;BME280;48671;48.922;2.346;2023-04-16T00:33:56;102220.03;;;10.17;56.84
62600;BME280;48671;48.922;2.346;2023-04-16T00:36:23;102215.75;;;10.14;56.77
62600;BME280;48671;48.922;2.346;2023-04-16T00:38:48;102215.84;;;10.08;56.85
62600;BME280;48671;48.922;2.346;2023-04-16T00:41:14;102208.97;;;10.02;56.98
62600;BME280;48671;48.922;2.346;2023-04-16T00:43:39;102219.41;;;10.01;56.90
62600;BME280;48671;48.922;2.346;2023-04-16T00:46:04;102214.19;;;9.99;57.22
62600;BME280;48671;48.922;2.346;2023-04-16T00:48:31;102202.13;;;9.95;57.61
62600;BME280;48671;48.922;2.346;2023-04-16T00:50:58;102215.09;;;9.97;57.40
62600;BME280;48671;48.922;2.346;2023-04-16T00:53:24;102210.84;;;9.91;57.54
62600;BME280;48671;48.922;2.346;2023-04-16T00:55:50;102203.91;;;9.90;57.60
62600;BME280;48671;48.922;2.346;2023-04-16T00:58:16;102207.44;;;9.88;57.71
62600;BME280;48671;48.922;2.346;2023-04-16T01:00:41;102205.72;;;9.83;57.45
62600;BME280;48671;48.922;2.346;2023-04-16T01:03:06;102201.47;;;9.78;57.67
62600;BME280;48671;48.922;2.346;2023-04-16T01:05:34;102210.16;;;9.75;57.82
62600;BME280;48671;48.922;2.346;2023-04-16T01:08:00;102197.22;;;9.68;58.05
62600;BME280;48671;48.922;2.346;2023-04-16T01:10:25;102198.97;;;9.67;58.04
62600;BME280;48671;48.922;2.346;2023-04-16T01:12:50;102199.81;;;9.68;58.17
62600;BME280;48671;48.922;2.346;2023-04-16T01:15:16;102198.16;;;9.65;58.27
62600;BME280;48671;48.922;2.346;2023-04-16T01:17:44;102203.31;;;9.68;58.55
62600;BME280;48671;48.922;2.346;2023-04-16T01:20:10;102200.75;;;9.65;58.37
62600;BME280;48671;48.922;2.346;2023-04-16T01:22:35;102213.72;;;9.67;58.57
62600;BME280;48671;48.922;2.346;2023-04-16T01:25:00;102209.41;;;9.66;58.30
62600;BME280;48671;48.922;2.346;2023-04-16T01:27:26;102205.97;;;9.60;58.73
62600;BME280;48671;48.922;2.346;2023-04-16T01:29:51;102196.47;;;9.58;58.58
62600;BME280;48671;48.922;2.346;2023-04-16T01:32:16;102196.50;;;9.56;58.83
62600;BME280;48671;48.922;2.346;2023-04-16T01:34:42;102198.19;;;9.60;58.76
62600;BME280;48671;48.922;2.346;2023-04-16T01:37:07;102200.81;;;9.59;58.94
62600;BME280;48671;48.922;2.346;2023-04-16T01:39:32;102203.44;;;9.56;58.68
62600;BME280;48671;48.922;2.346;2023-04-16T01:41:58;102197.41;;;9.51;59.27
62600;BME280;48671;48.922;2.346;2023-04-16T01:44:23;102194.84;;;9.49;59.07
62600;BME280;48671;48.922;2.346;2023-04-16T01:46:49;102206.94;;;9.52;59.28
62600;BME280;48671;48.922;2.346;2023-04-16T01:49:15;102206.09;;;9.50;59.22
62600;BME280;48671;48.922;2.346;2023-04-16T01:51:40;102209.59;;;9.49;59.51
62600;BME280;48671;48.922;2.346;2023-04-16T01:54:06;102213.94;;;9.45;59.08
62600;BME280;48671;48.922;2.346;2023-04-16T01:56:31;102224.34;;;9.45;59.36
62600;BME280;48671;48.922;2.346;2023-04-16T01:58:57;102208.78;;;9.42;59.44
62600;BME280;48671;48.922;2.346;2023-04-16T02:01:22;102209.66;;;9.38;59.26
62600;BME280;48671;48.922;2.346;2023-04-16T02:03:48;102220.94;;;9.37;59.22
62600;BME280;48671;48.922;2.346;2023-04-16T02:06:13;102219.22;;;9.36;59.37
62600;BME280;48671;48.922;2.346;2023-04-16T02:08:39;102212.28;;;9.35;59.45
62600;BME280;48671;48.922;2.346;2023-04-16T02:11:05;102228.78;;;9.31;59.40
62600;BME280;48671;48.922;2.346;2023-04-16T02:13:30;102226.28;;;9.22;59.42
62600;BME280;48671;48.922;2.346;2023-04-16T02:15:55;102234.09;;;9.20;59.78
62600;BME280;48671;48.922;2.346;2023-04-16T02:18:20;102232.38;;;9.18;59.60
62600;BME280;48671;48.922;2.346;2023-04-16T02:20:46;102228.06;;;9.15;59.89
62600;BME280;48671;48.922;2.346;2023-04-16T02:23:13;102232.41;;;9.11;60.00
62600;BME280;48671;48.922;2.346;2023-04-16T02:25:43;102228.13;;;9.07;59.98
62600;BME280;48671;48.922;2.346;2023-04-16T02:28:11;102232.50;;;9.04;59.77
62600;BME280;48671;48.922;2.346;2023-04-16T02:30:37;102226.47;;;8.99;60.22
62600;BME280;48671;48.922;2.346;2023-04-16T02:33:03;102229.09;;;8.93;60.03
62600;BME280;48671;48.922;2.346;2023-04-16T02:35:31;102223.06;;;8.89;60.57
62600;BME280;48671;48.922;2.346;2023-04-16T02:37:57;102232.59;;;8.90;60.56
62600;BME280;48671;48.922;2.346;2023-04-16T02:40:22;102225.69;;;8.87;60.66
62600;BME280;48671;48.922;2.346;2023-04-16T02:42:47;102237.81;;;8.87;60.63
62600;BME280;48671;48.922;2.346;2023-04-16T02:45:13;102233.50;;;8.84;60.39
62600;BME280;48671;48.922;2.346;2023-04-16T02:47:38;102233.53;;;8.83;60.51
62600;BME280;48671;48.922;2.346;2023-04-16T02:50:04;102233.53;;;8.78;60.64
62600;BME280;48671;48.922;2.346;2023-04-16T02:52:29;102238.75;;;8.75;61.18
62600;BME280;48671;48.922;2.346;2023-04-16T02:54:56;102233.59;;;8.74;60.88
62600;BME280;48671;48.922;2.346;2023-04-16T02:57:21;102234.47;;;8.71;60.62
62600;BME280;48671;48.922;2.346;2023-04-16T02:59:46;102226.72;;;8.65;61.29
62600;BME280;48671;48.922;2.346;2023-04-16T03:02:12;102221.59;;;8.57;61.06
62600;BME280;48671;48.922;2.346;2023-04-16T03:04:37;102221.59;;;8.57;61.23
62600;BME280;48671;48.922;2.346;2023-04-16T03:07:03;102219.00;;;8.53;61.78
62600;BME280;48671;48.922;2.346;2023-04-16T03:09:28;102231.09;;;8.55;61.97
62600;BME280;48671;48.922;2.346;2023-04-16T03:11:53;102228.50;;;8.58;61.64
62600;BME280;48671;48.922;2.346;2023-04-16T03:14:19;102224.16;;;8.59;61.88
62600;BME280;48671;48.922;2.346;2023-04-16T03:16:44;102231.97;;;8.57;62.13
62600;BME280;48671;48.922;2.346;2023-04-16T03:19:09;102238.00;;;8.58;61.82
62600;BME280;48671;48.922;2.346;2023-04-16T03:21:35;102236.31;;;8.51;61.70
62600;BME280;48671;48.922;2.346;2023-04-16T03:24:00;102237.16;;;8.50;61.55
62600;BME280;48671;48.922;2.346;2023-04-16T03:26:25;102239.78;;;8.48;61.71
62600;BME280;48671;48.922;2.346;2023-04-16T03:28:51;102247.56;;;8.50;61.62
62600;BME280;48671;48.922;2.346;2023-04-16T03:31:16;102243.28;;;8.44;62.01
62600;BME280;48671;48.922;2.346;2023-04-16T03:33:41;102245.84;;;8.46;62.09
62600;BME280;48671;48.922;2.346;2023-04-16T03:36:07;102243.28;;;8.41;62.43
62600;BME280;48671;48.922;2.346;2023-04-16T03:38:32;102237.22;;;8.45;62.43
62600;BME280;48671;48.922;2.346;2023-04-16T03:40:58;102246.75;;;8.41;62.10
62600;BME280;48671;48.922;2.346;2023-04-16T03:43:23;102254.50;;;8.43;62.29
62600;BME280;48671;48.922;2.346;2023-04-16T03:45:48;102239.84;;;8.39;61.95
62600;BME280;48671;48.922;2.346;2023-04-16T03:48:14;102237.25;;;8.30;62.18
62600;BME280;48671;48.922;2.346;2023-04-16T03:50:44;102247.59;;;8.33;62.02
62600;BME280;48671;48.922;2.346;2023-04-16T03:53:09;102237.25;;;8.31;62.36
62600;BME280;48671;48.922;2.346;2023-04-16T03:55:34;102245.06;;;8.25;62.14
62600;BME280;48671;48.922;2.346;2023-04-16T03:58:00;102247.66;;;8.22;62.26
62600;BME280;48671;48.922;2.346;2023-04-16T04:00:27;102245.09;;;8.17;62.59
62600;BME280;48671;48.922;2.346;2023-04-16T04:02:53;102257.16;;;8.23;63.03
62600;BME280;48671;48.922;2.346;2023-04-16T04:05:18;102239.03;;;8.20;62.97
62600;BME280;48671;48.922;2.346;2023-04-16T04:07:43;102253.72;;;8.21;62.96
62600;BME280;48671;48.922;2.346;2023-04-16T04:10:09;102263.19;;;8.27;62.65
62600;BME280;48671;48.922;2.346;2023-04-16T04:12:34;102264.94;;;8.25;62.45
62600;BME280;48671;48.922;2.346;2023-04-16T04:15:00;102263.25;;;8.19;62.06
62600;BME280;48671;48.922;2.346;2023-04-16T04:17:25;102256.34;;;8.10;62.93
62600;BME280;48671;48.922;2.346;2023-04-16T04:19:50;102271.88;;;8.16;63.43
62600;BME280;48671;48.922;2.346;2023-04-16T04:22:18;102263.25;;;8.14;63.34
62600;BME280;48671;48.922;2.346;2023-04-16T04:24:43;102269.31;;;8.15;63.60
62600;BME280;48671;48.922;2.346;2023-04-16T04:27:08;102271.03;;;8.10;63.52
62600;BME280;48671;48.922;2.346;2023-04-16T04:29:34;102272.78;;;8.08;63.45
62600;BME280;48671;48.922;2.346;2023-04-16T04:31:59;102270.22;;;8.00;64.15
62600;BME280;48671;48.922;2.346;2023-04-16T04:34:25;102273.69;;;7.93;64.64
62600;BME280;48671;48.922;2.346;2023-04-16T04:36:50;102271.09;;;7.93;64.68
62600;BME280;48671;48.922;2.346;2023-04-16T04:39:15;102281.47;;;7.96;65.49
62600;BME280;48671;48.922;2.346;2023-04-16T04:41:40;102280.59;;;7.91;65.73
62600;BME280;48671;48.922;2.346;2023-04-16T04:44:06;102279.75;;;7.89;66.08
62600;BME280;48671;48.922;2.346;2023-04-16T04:46:31;102282.31;;;7.90;65.96
62600;BME280;48671;48.922;2.346;2023-04-16T04:48:56;102278.00;;;7.88;65.74
62600;BME280;48671;48.922;2.346;2023-04-16T04:51:22;102272.81;;;7.88;66.24
62600;BME280;48671;48.922;2.346;2023-04-16T04:53:47;102286.66;;;7.96;66.01
62600;BME280;48671;48.922;2.346;2023-04-16T04:56:12;102279.75;;;7.92;66.55
62600;BME280;48671;48.922;2.346;2023-04-16T04:58:38;102281.44;;;7.97;66.77
62600;BME280;48671;48.922;2.346;2023-04-16T05:01:03;102286.63;;;7.99;66.68
62600;BME280;48671;48.922;2.346;2023-04-16T05:03:28;102278.88;;;7.96;67.13
62600;BME280;48671;48.922;2.346;2023-04-16T05:05:54;102273.69;;;7.90;66.67
62600;BME280;48671;48.922;2.346;2023-04-16T05:08:19;102280.63;;;7.86;66.62
62600;BME280;48671;48.922;2.346;2023-04-16T05:10:45;102278.88;;;7.84;67.09
62600;BME280;48671;48.922;2.346;2023-04-16T05:13:11;102284.94;;;7.87;66.83
62600;BME280;48671;48.922;2.346;2023-04-16T05:15:37;102288.38;;;7.89;66.57
62600;BME280;48671;48.922;2.346;2023-04-16T05:18:02;102285.81;;;7.85;66.67
62600;BME280;48671;48.922;2.346;2023-04-16T05:20:27;102300.50;;;7.80;67.78
62600;BME280;48671;48.922;2.346;2023-04-16T05:22:53;102294.47;;;7.67;66.86
62600;BME280;48671;48.922;2.346;2023-04-16T05:25:19;102303.97;;;7.66;67.43
62600;BME280;48671;48.922;2.346;2023-04-16T05:27:45;102290.16;;;7.60;67.62
62600;BME280;48671;48.922;2.346;2023-04-16T05:30:10;102296.22;;;7.59;67.98
62600;BME280;48671;48.922;2.346;2023-04-16T05:32:38;102307.44;;;7.67;68.00
62600;BME280;48671;48.922;2.346;2023-04-16T05:35:04;102312.63;;;7.68;67.84
62600;BME280;48671;48.922;2.346;2023-04-16T05:37:29;102306.56;;;7.63;68.34
62600;BME280;48671;48.922;2.346;2023-04-16T05:39:54;102316.06;;;7.58;68.23
62600;BME280;48671;48.922;2.346;2023-04-16T05:42:20;102316.94;;;7.57;68.88
62600;BME280;48671;48.922;2.346;2023-04-16T05:44:45;102315.19;;;7.58;69.25
62600;BME280;48671;48.922;2.346;2023-04-16T05:47:10;102317.78;;;7.58;68.38
62600;BME280;48671;48.922;2.346;2023-04-16T05:49:36;102320.38;;;7.64;68.52
62600;BME280;48671;48.922;2.346;2023-04-16T05:52:04;102325.56;;;7.64;67.64
62600;BME280;48671;48.922;2.346;2023-04-16T05:54:30;102321.25;;;7.54;68.87
62600;BME280;48671;48.922;2.346;2023-04-16T05:56:55;102328.16;;;7.61;68.94
62600;BME280;48671;48.922;2.346;2023-04-16T05:59:21;102327.28;;;7.66;69.00
62600;BME280;48671;48.922;2.346;2023-04-16T06:01:46;102319.50;;;7.74;68.71
62600;BME280;48671;48.922;2.346;2023-04-16T06:04:12;102327.28;;;7.83;68.92
62600;BME280;48671;48.922;2.346;2023-04-16T06:06:37;102330.72;;;7.82;68.08
62600;BME280;48671;48.922;2.346;2023-04-16T06:09:04;102329.00;;;7.86;68.48
62600;BME280;48671;48.922;2.346;2023-04-16T06:11:29;102322.09;;;7.89;68.71
62600;BME280;48671;48.922;2.346;2023-04-16T06:13:54;102336.75;;;7.96;68.46
62600;BME280;48671;48.922;2.346;2023-04-16T06:16:20;102330.69;;;7.97;68.43
62600;BME280;48671;48.922;2.346;2023-04-16T06:18:45;102330.69;;;7.99;68.14
62600;BME280;48671;48.922;2.346;2023-04-16T06:21:11;102332.41;;;8.03;68.42
62600;BME280;48671;48.922;2.346;2023-04-16T06:23:36;102331.53;;;8.06;68.50
62600;BME280;48671;48.922;2.346;2023-04-16T06:26:01;102334.09;;;8.13;68.27
62600;BME280;48671;48.922;2.346;2023-04-16T06:28:27;102327.19;;;8.20;68.35
62600;BME280;48671;48.922;2.346;2023-04-16T06:30:52;102333.22;;;8.22;68.14
62600;BME280;48671;48.922;2.346;2023-04-16T06:33:17;102328.91;;;8.23;67.36
62600;BME280;48671;48.922;2.346;2023-04-16T06:35:43;102323.72;;;8.23;67.70
62600;BME280;48671;48.922;2.346;2023-04-16T06:38:08;102330.63;;;8.24;67.66
62600;BME280;48671;48.922;2.346;2023-04-16T06:40:33;102325.44;;;8.27;68.46
62600;BME280;48671;48.922;2.346;2023-04-16T06:43:01;102326.28;;;8.39;68.01
62600;BME280;48671;48.922;2.346;2023-04-16T06:45:26;102331.47;;;8.39;67.22
62600;BME280;48671;48.922;2.346;2023-04-16T06:47:51;102342.72;;;8.38;67.75
62600;BME280;48671;48.922;2.346;2023-04-16T06:50:17;102334.06;;;8.35;68.19
62600;BME280;48671;48.922;2.346;2023-04-16T06:52:42;102334.94;;;8.38;67.40
62600;BME280;48671;48.922;2.346;2023-04-16T06:55:08;102335.81;;;8.39;67.67
62600;BME280;48671;48.922;2.346;2023-04-16T06:57:34;102337.50;;;8.44;68.51
62600;BME280;48671;48.922;2.346;2023-04-16T06:59:59;102336.63;;;8.49;67.96
62600;BME280;48671;48.922;2.346;2023-04-16T07:02:25;102343.50;;;8.56;67.81
62600;BME280;48671;48.922;2.346;2023-04-16T07:04:50;102351.25;;;8.68;67.79
62600;BME280;48671;48.922;2.346;2023-04-16T07:07:16;102345.16;;;8.80;68.06
62600;BME280;48671;48.922;2.346;2023-04-16T07:09:42;102350.25;;;8.97;67.63
62600;BME280;48671;48.922;2.346;2023-04-16T07:12:07;102341.53;;;9.02;67.00
62600;BME280;48671;48.922;2.346;2023-04-16T07:14:32;102352.69;;;9.15;66.98
62600;BME280;48671;48.922;2.346;2023-04-16T07:16:58;102354.38;;;9.24;66.33
62600;BME280;48671;48.922;2.346;2023-04-16T07:19:23;102346.50;;;9.34;66.25
62600;BME280;48671;48.922;2.346;2023-04-16T07:21:48;102344.69;;;9.44;65.53
62600;BME280;48671;48.922;2.346;2023-04-16T07:24:13;102342.88;;;9.54;65.81
62600;BME280;48671;48.922;2.346;2023-04-16T07:26:39;102350.53;;;9.75;65.67
62600;BME280;48671;48.922;2.346;2023-04-16T07:29:04;102346.06;;;9.88;64.42
62600;BME280;48671;48.922;2.346;2023-04-16T07:31:30;102353.78;;;9.96;65.00
62600;BME280;48671;48.922;2.346;2023-04-16T07:33:55;102346.75;;;10.05;64.28
62600;BME280;48671;48.922;2.346;2023-04-16T07:36:20;102357.09;;;10.10;64.13
62600;BME280;48671;48.922;2.346;2023-04-16T07:38:46;102352.63;;;10.24;64.11
62600;BME280;48671;48.922;2.346;2023-04-16T07:41:11;102359.44;;;10.38;63.58
62600;BME280;48671;48.922;2.346;2023-04-16T07:43:37;102346.41;;;10.41;62.82
62600;BME280;48671;48.922;2.346;2023-04-16T07:46:02;102355.00;;;10.46;62.75
62600;BME280;48671;48.922;2.346;2023-04-16T07:48:27;102348.03;;;10.48;63.18
62600;BME280;48671;48.922;2.346;2023-04-16T07:50:53;102353.88;;;10.65;62.72
62600;BME280;48671;48.922;2.346;2023-04-16T07:53:18;102354.69;;;10.70;62.47
62600;BME280;48671;48.922;2.346;2023-04-16T07:55:44;102348.56;;;10.76;62.49
62600;BME280;48671;48.922;2.346;2023-04-16T07:58:09;102357.06;;;10.87;62.03
62600;BME280;48671;48.922;2.346;2023-04-16T08:00:35;102362.97;;;10.98;61.86
62600;BME280;48671;48.922;2.346;2023-04-16T08:03:00;102360.16;;;11.14;61.38
62600;BME280;48671;48.922;2.346;2023-04-16T08:05:25;102368.75;;;11.22;62.00
62600;BME280;48671;48.922;2.346;2023-04-16T08:07:51;102373.75;;;11.36;60.57
62600;BME280;48671;48.922;2.346;2023-04-16T08:10:16;102371.66;;;11.56;61.00
62600;BME280;48671;48.922;2.346;2023-04-16T08:12:41;102361.44;;;11.98;59.46
62600;BME280;48671;48.922;2.346;2023-04-16T08:15:07;102363.22;;;12.41;59.13
62600;BME280;48671;48.922;2.346;2023-04-16T08:17:32;102360.50;;;12.87;58.31
62600;BME280;48671;48.922;2.346;2023-04-16T08:19:59;102362.22;;;13.27;57.19
62600;BME280;48671;48.922;2.346;2023-04-16T08:22:24;102360.38;;;13.67;56.24
62600;BME280;48671;48.922;2.346;2023-04-16T08:24:50;102366.13;;;13.81;55.98
62600;BME280;48671;48.922;2.346;2023-04-16T08:27:16;102361.56;;;13.89;53.79
62600;BME280;48671;48.922;2.346;2023-04-16T08:29:41;102362.47;;;13.88;54.99
62600;BME280;48671;48.922;2.346;2023-04-16T08:32:06;102362.94;;;14.02;53.86
62600;BME280;48671;48.922;2.346;2023-04-16T08:34:33;102360.91;;;14.14;54.19
62600;BME280;48671;48.922;2.346;2023-04-16T08:36:59;102353.69;;;14.22;53.36
62600;BME280;48671;48.922;2.346;2023-04-16T08:39:24;102362.13;;;14.33;53.18
62600;BME280;48671;48.922;2.346;2023-04-16T08:41:51;102360.81;;;14.48;51.70
62600;BME280;48671;48.922;2.346;2023-04-16T08:44:31;102362.34;;;14.57;53.33
62600;BME280;48671;48.922;2.346;2023-04-16T08:46:57;102363.97;;;14.61;52.39
62600;BME280;48671;48.922;2.346;2023-04-16T08:49:24;102372.59;;;14.64;51.90
62600;BME280;48671;48.922;2.346;2023-04-16T08:51:52;102370.88;;;14.63;52.23
62600;BME280;48671;48.922;2.346;2023-04-16T08:57:05;102369.47;;;14.51;50.38
62600;BME280;48671;48.922;2.346;2023-04-16T08:59:34;102378.25;;;14.49;50.64
62600;BME280;48671;48.922;2.346;2023-04-16T09:02:00;102380.97;;;14.46;52.36
62600;BME280;48671;48.922;2.346;2023-04-16T09:04:27;102374.81;;;14.47;52.17
62600;BME280;48671;48.922;2.346;2023-04-16T09:06:54;102376.81;;;14.39;51.97
62600;BME280;48671;48.922;2.346;2023-04-16T09:09:21;102377.09;;;14.28;50.74
62600;BME280;48671;48.922;2.346;2023-04-16T09:11:51;102379.75;;;13.94;50.88
62600;BME280;48671;48.922;2.346;2023-04-16T09:14:17;102383.97;;;13.65;51.74
62600;BME280;48671;48.922;2.346;2023-04-16T09:16:44;102384.41;;;13.48;51.71
62600;BME280;48671;48.922;2.346;2023-04-16T09:19:10;102378.53;;;13.39;53.08
62600;BME280;48671;48.922;2.346;2023-04-16T09:21:36;102384.28;;;13.53;52.18
62600;BME280;48671;48.922;2.346;2023-04-16T09:24:03;102382.34;;;13.61;52.02
62600;BME280;48671;48.922;2.346;2023-04-16T09:26:29;102387.44;;;13.67;52.15
62600;BME280;48671;48.922;2.346;2023-04-16T09:28:55;102383.22;;;13.60;52.31
62600;BME280;48671;48.922;2.346;2023-04-16T09:31:20;102382.97;;;13.71;51.97
62600;BME280;48671;48.922;2.346;2023-04-16T09:34:03;102381.94;;;13.76;51.01
62600;BME280;48671;48.922;2.346;2023-04-16T09:36:29;102377.63;;;13.75;50.67
62600;BME280;48671;48.922;2.346;2023-04-16T09:38:56;102392.50;;;13.73;51.59
62600;BME280;48671;48.922;2.346;2023-04-16T09:41:32;102386.88;;;13.89;51.77
62600;BME280;48671;48.922;2.346;2023-04-16T09:44:03;102382.94;;;14.05;51.46
62600;BME280;48671;48.922;2.346;2023-04-16T09:46:37;102390.19;;;14.28;52.73
62600;BME280;48671;48.922;2.346;2023-04-16T09:49:16;102387.69;;;14.56;51.11
62600;BME280;48671;48.922;2.346;2023-04-16T09:51:45;102383.22;;;14.60;50.90
62600;BME280;48671;48.922;2.346;2023-04-16T09:54:10;102390.44;;;14.81;50.74
62600;BME280;48671;48.922;2.346;2023-04-16T09:56:40;102383.97;;;14.93;51.02
62600;BME280;48671;48.922;2.346;2023-04-16T09:59:07;102388.78;;;15.07;50.54
62600;BME280;48671;48.922;2.346;2023-04-16T10:01:33;102383.34;;;15.14;48.62
62600;BME280;48671;48.922;2.346;2023-04-16T10:04:00;102385.63;;;15.23;48.49
62600;BME280;48671;48.922;2.346;2023-04-16T10:06:28;102388.47;;;15.17;47.27
62600;BME280;48671;48.922;2.346;2023-04-16T10:08:53;102387.09;;;15.06;47.28
62600;BME280;48671;48.922;2.346;2023-04-16T10:11:22;102396.25;;;14.91;47.52
62600;BME280;48671;48.922;2.346;2023-04-16T10:13:48;102391.13;;;14.88;47.80
62600;BME280;48671;48.922;2.346;2023-04-16T10:16:14;102387.28;;;14.99;48.06
62600;BME280;48671;48.922;2.346;2023-04-16T10:18:41;102386.66;;;15.19;47.64
62600;BME280;48671;48.922;2.346;2023-04-16T10:21:07;102387.53;;;15.46;47.95
62600;BME280;48671;48.922;2.346;2023-04-16T10:23:37;102386.94;;;15.66;48.08
62600;BME280;48671;48.922;2.346;2023-04-16T10:26:04;102381.75;;;15.90;47.45
62600;BME280;48671;48.922;2.346;2023-04-16T10:28:30;102377.72;;;16.05;48.11
62600;BME280;48671;48.922;2.346;2023-04-16T10:31:00;102381.41;;;16.24;44.53
62600;BME280;48671;48.922;2.346;2023-04-16T10:33:38;102372.69;;;16.24;44.19
62600;BME280;48671;48.922;2.346;2023-04-16T10:36:08;102378.09;;;16.19;43.89
62600;BME280;48671;48.922;2.346;2023-04-16T10:38:37;102370.38;;;16.14;44.71
62600;BME280;48671;48.922;2.346;2023-04-16T10:41:04;102373.84;;;16.15;45.44
62600;BME280;48671;48.922;2.346;2023-04-16T10:43:33;102375.25;;;16.25;45.27
62600;BME280;48671;48.922;2.346;2023-04-16T10:46:18;102376.47;;;16.40;45.29
62600;BME280;48671;48.922;2.346;2023-04-16T10:48:45;102385.69;;;16.52;44.92
62600;BME280;48671;48.922;2.346;2023-04-16T10:53:54;102383.59;;;16.60;43.54
62600;BME280;48671;48.922;2.346;2023-04-16T10:56:26;102383.72;;;16.57;43.03
62600;BME280;48671;48.922;2.346;2023-04-16T10:58:55;102379.19;;;16.60;44.21
62600;BME280;48671;48.922;2.346;2023-04-16T11:03:57;102387.13;;;16.84;43.73
62600;BME280;48671;48.922;2.346;2023-04-16T11:06:25;102372.75;;;16.93;42.73
62600;BME280;48671;48.922;2.346;2023-04-16T11:08:51;102378.50;;;17.02;43.39
62600;BME280;48671;48.922;2.346;2023-04-16T11:11:18;102384.16;;;17.15;44.01
62600;BME280;48671;48.922;2.346;2023-04-16T11:13:44;102376.81;;;17.23;41.22
62600;BME280;48671;48.922;2.346;2023-04-16T11:16:11;102372.28;;;17.27;43.56
62600;BME280;48671;48.922;2.346;2023-04-16T11:18:37;102371.41;;;17.48;43.28
62600;BME280;48671;48.922;2.346;2023-04-16T11:21:08;102375.06;;;17.66;41.00
62600;BME280;48671;48.922;2.346;2023-04-16T11:23:45;102369.72;;;17.68;42.17
62600;BME280;48671;48.922;2.346;2023-04-16T11:26:25;102366.50;;;17.82;42.39
62600;BME280;48671;48.922;2.346;2023-04-16T11:28:52;102364.47;;;17.88;41.98
62600;BME280;48671;48.922;2.346;2023-04-16T11:31:18;102354.81;;;17.89;41.89
62600;BME280;48671;48.922;2.346;2023-04-16T11:33:44;102357.16;;;17.95;42.91
62600;BME280;48671;48.922;2.346;2023-04-16T11:36:09;102359.66;;;17.98;41.26
62600;BME280;48671;48.922;2.346;2023-04-16T11:38:35;102361.03;;;18.07;42.87
62600;BME280;48671;48.922;2.346;2023-04-16T11:41:01;102353.38;;;18.21;40.05
62600;BME280;48671;48.922;2.346;2023-04-16T11:43:27;102356.47;;;18.31;41.74
62600;BME280;48671;48.922;2.346;2023-04-16T11:46:03;102351.13;;;18.32;41.34
62600;BME280;48671;48.922;2.346;2023-04-16T11:48:49;102348.38;;;18.35;41.85
62600;BME280;48671;48.922;2.346;2023-04-16T11:51:15;102349.94;;;18.39;40.63
62600;BME280;48671;48.922;2.346;2023-04-16T11:53:49;102351.88;;;18.55;40.83
62600;BME280;48671;48.922;2.346;2023-04-16T11:56:14;102353.66;;;18.54;40.88
62600;BME280;48671;48.922;2.346;2023-04-16T11:58:41;102344.75;;;18.76;40.81
62600;BME280;48671;48.922;2.346;2023-04-16T12:01:07;102348.94;;;18.99;41.16
62600;BME280;48671;48.922;2.346;2023-04-16T12:03:38;102355.88;;;19.18;40.50
62600;BME280;48671;48.922;2.346;2023-04-16T12:06:07;102344.88;;;19.28;40.05
62600;BME280;48671;48.922;2.346;2023-04-16T12:08:33;102342.78;;;19.34;40.16
62600;BME280;48671;48.922;2.346;2023-04-16T12:10:59;102340.69;;;19.41;39.86
62600;BME280;48671;48.922;2.346;2023-04-16T12:13:24;102341.72;;;19.56;38.99
62600;BME280;48671;48.922;2.346;2023-04-16T12:15:54;102335.78;;;19.70;39.11
62600;BME280;48671;48.922;2.346;2023-04-16T12:18:22;102330.06;;;19.77;39.04
62600;BME280;48671;48.922;2.346;2023-04-16T12:20:48;102333.41;;;19.98;39.22
62600;BME280;48671;48.922;2.346;2023-04-16T12:23:26;102330.34;;;20.06;38.51
62600;BME280;48671;48.922;2.346;2023-04-16T12:25:53;102333.25;;;20.01;37.34
62600;BME280;48671;48.922;2.346;2023-04-16T12:28:32;102335.63;;;20.06;37.85
62600;BME280;48671;48.922;2.346;2023-04-16T12:30:59;102328.84;;;20.18;35.94
62600;BME280;48671;48.922;2.346;2023-04-16T12:33:24;102324.84;;;20.26;35.90
62600;BME280;48671;48.922;2.346;2023-04-16T12:35:50;102329.69;;;20.18;36.81
62600;BME280;48671;48.922;2.346;2023-04-16T12:38:15;102333.09;;;20.20;36.33
62600;BME280;48671;48.922;2.346;2023-04-16T12:40:41;102318.91;;;20.39;37.26
62600;BME280;48671;48.922;2.346;2023-04-16T12:43:07;102317.56;;;20.47;36.32
62600;BME280;48671;48.922;2.346;2023-04-16T12:45:33;102322.22;;;20.42;37.11
62600;BME280;48671;48.922;2.346;2023-04-16T12:47:58;102323.91;;;20.61;36.88
62600;BME280;48671;48.922;2.346;2023-04-16T12:50:24;102324.81;;;20.75;35.40
62600;BME280;48671;48.922;2.346;2023-04-16T12:52:50;102325.94;;;20.87;35.97
62600;BME280;48671;48.922;2.346;2023-04-16T12:55:15;102327.91;;;20.84;35.18
62600;BME280;48671;48.922;2.346;2023-04-16T12:57:41;102323.69;;;20.79;32.52
62600;BME280;48671;48.922;2.346;2023-04-16T13:00:07;102321.56;;;20.86;34.74